Lancaster Airport
KLNS : now visible

Airfield :











YOU CAN JOIN US ON...

 
LOGIN :

Register | Disclaimer

   EN    FR    IT 

 









Legend :    VFR   Marginal VFR   IFR   Intensive IFR   Very Intensive IFR
Visi :
Ceiling :
>= 8 km
>= 3000ft
5 to 8 km
1000 to 3000 ft
1500m to 5 km
500 to 1000 ft
800 to 1500m
200 to 500 ft
< 800m
< 200 ft
Symbols :   Thunderstorms  Fog  Heavy snow  Heavy precipitations  Wind > 20 kt







- Airport Elevation : 403 ft
- IATA code : LNS


KLNS - Lancaster

CURRENT METAR :
  • 181853Z 26005KT 10SM FEW041 OVC050 27/25 A2988 RMK AO2 LTG DSNT E-S RAB32E51 SLP113 P0000 T02720250

EXPIRED METARs :
  • 181753Z VRB06KT 10SM SCT070 OVC095 28/24 A2988 RMK AO2 RAB20E33 SLP114 P0000 60000 T02830244 10300 20244 56008
  • 181653Z 31006KT 10SM SCT022 BKN070 29/25 A2989 RMK AO2 SLP116 T02940250

TAF KLNS
Valid from the 18 at 18:00 until the 19 at 18:00 UTC


181740Z 1818/1918 VRB03KT 6SM -SHRA HZ BKN035
FM181900 VRB03KT 6SM HZ VCTS BKN035CB
FM182300 VRB03KT P6SM VCSH BKN035
FM190500 VRB05KT 3SM BR SKC
FM191300 26005KT P6SM FEW050
KZNY FIR / North America



MET'MAP, your aeronautical weather chart ! - Copyright ORBIFLY December 2007 - Disclaimer

ORBIFLY MET'MAP TEAM :

Programming & Development : Alexandra Zaïnal
Concept & Development : Baudouin d'Aumeries
Co-Development & Prog : Marc-Olivier Méhu
Technical & hardware support : Manuel Goepfert

Contact : metmap@orbifly.com




SOURCES & CREDITS :

   NOAA       Earth
Advisory